Airfield :
LOGIN :

Register | Disclaimer

   EN    FR    IT 

 










Legend :    VFR   Marginal VFR   IFR   Intensive IFR   Very Intensive IFR
Visi :
Ceiling :
>= 8 km
>= 3000ft
5 to 8 km
1000 to 3000 ft
1500m to 5 km
500 to 1000 ft
800 to 1500m
200 to 500 ft
< 800m
< 200 ft
Symbols :   Thunderstorms  Fog  Heavy snow  Heavy precipitations  Wind > 20 kt
SIGMETs :     Misc.  Thunderstorms  Icing  Turbulence  Mountain Waves  Volcanic Ashes







- Airport Elevation : 70 ft
- IATA code : LEI


LEAM - Almeria

CURRENT METAR :
  • 170200Z AUTO 04004KT 330V060 9999 NCD 13/12 Q1024

EXPIRED METARs :
  • 170130Z AUTO 02007KT 9999 NCD 13/12 Q1024
  • 170100Z AUTO 02007KT 340V050 9999 NCD 13/12 Q1024
  • 170030Z AUTO 05006KT 9999 NCD 13/12 Q1024
  • 170000Z AUTO 04005KT 360V070 9999 NCD 13/11 Q1024
  • 162330Z AUTO 03005KT 9999 NCD 13/11 Q1024

TAF TAF LEAM
Valid from the 16 at 21:00 until the 17 at 21:00 UTC


162000Z 1621/1721 VRB03KT CAVOK TX18/1713Z TN09/1707Z
BECMG 1621/1624 03010KT
No reported NOTAMs for that airfield.



MET'MAP, your aeronautical weather chart ! - Copyright ORBIFLY December 2007 - Disclaimer

ORBIFLY MET'MAP TEAM :

Programming & Development : Alexandra Zaïnal
Concept & Development : Baudouin d'Aumeries
Co-Development & Prog : Marc-Olivier Méhu
Technical & hardware support : Manuel Goepfert

Contact : metmap@orbifly.com




SOURCES & CREDITS :

   NOAA